Terminal Aerodrome Forecast
Issued by NWS Cleveland, OH

Home | Current Version | Previous Version | Graphics & Text | Print | Product List | Glossary On
Versions: 1 2 3 4 5 6 7 8 9 10 11 12 13 14 15 16 17 18 19 20 21 22 23 24 25 26 27 28 29 30 31 32 33 34 35 36 37
000
FTUS41 KCLE 261100
TAFCLE
TAF
KCLE 261131Z 2612/2718 03015KT 3SM -SN OVC035
      TEMPO 2612/2614 1SM -SN BKN018
     FM261500 01012KT 6SM -SN OVC035
     FM262000 36012KT P6SM OVC025
     FM270200 35008KT P6SM OVC020=

USA.gov is the U.S. government's official web portal to all federal, state and local government web resources and services.